createdAt,value
2018-07-23T00:00:51.991Z,100696.34
2018-07-23T00:03:19.986Z,100693.98
2018-07-23T00:05:48.030Z,100690.38
2018-07-23T00:08:16.041Z,100681.78
2018-07-23T00:10:44.024Z,100693.12
2018-07-23T00:13:12.097Z,100689.23
2018-07-23T00:15:40.169Z,100691.59
2018-07-23T00:18:08.220Z,100685.08
2018-07-23T00:20:36.212Z,100683.29
2018-07-23T00:23:04.256Z,100685.53
2018-07-23T00:25:32.266Z,100683.16
2018-07-23T00:28:00.608Z,100681.56
2018-07-23T00:30:28.665Z,100683.74
2018-07-23T00:32:57.168Z,100686.40
2018-07-23T00:35:25.160Z,100687.37
2018-07-23T00:37:53.176Z,100690.86
2018-07-23T00:40:22.180Z,100694.34
2018-07-23T00:42:50.182Z,100695.88
2018-07-23T00:45:18.185Z,100693.80
2018-07-23T00:47:46.199Z,100692.70
2018-07-23T00:50:14.237Z,100691.70
2018-07-23T00:52:42.264Z,100694.89
2018-07-23T00:55:10.289Z,100695.89
2018-07-23T00:57:38.278Z,100693.25
2018-07-23T01:00:06.296Z,100691.73
2018-07-23T01:02:34.287Z,100693.73
2018-07-23T01:05:02.273Z,100699.59
2018-07-23T01:07:30.260Z,100699.41
2018-07-23T01:09:58.288Z,100697.42
2018-07-23T01:12:29.034Z,100696.42
2018-07-23T01:14:57.078Z,100699.52
2018-07-23T01:17:25.260Z,100700.94
2018-07-23T01:19:54.456Z,100700.14
2018-07-23T01:22:23.329Z,100698.88
2018-07-23T01:24:51.387Z,100699.67
2018-07-23T01:27:19.792Z,100698.74
2018-07-23T01:29:47.865Z,100702.50
2018-07-23T01:32:16.063Z,100708.43
2018-07-23T01:34:44.236Z,100705.45
2018-07-23T01:37:12.737Z,100701.11
2018-07-23T01:39:40.755Z,100699.16
2018-07-23T01:42:09.112Z,100698.70
2018-07-23T01:44:37.436Z,100702.91
2018-07-23T01:47:06.220Z,100708.56
2018-07-23T01:49:35.144Z,100708.63
2018-07-23T01:52:03.192Z,100710.52
2018-07-23T01:54:31.217Z,100710.38
2018-07-23T01:56:59.268Z,100712.76
2018-07-23T01:59:27.727Z,100709.06
2018-07-23T02:01:55.732Z,100715.97
2018-07-23T02:04:23.760Z,100712.79
2018-07-23T02:06:51.765Z,100716.29
2018-07-23T02:09:19.807Z,100713.48
2018-07-23T02:11:47.799Z,100715.82
2018-07-23T02:14:15.800Z,100719.89
2018-07-23T02:16:43.803Z,100722.98
2018-07-23T02:19:11.785Z,100721.37
2018-07-23T02:21:39.827Z,100725.09
2018-07-23T02:24:07.905Z,100732.83
2018-07-23T02:26:35.920Z,100731.86
2018-07-23T02:29:03.948Z,100733.20
2018-07-23T02:31:31.930Z,100734.23
2018-07-23T02:33:59.948Z,100731.69
2018-07-23T02:36:27.961Z,100739.52
2018-07-23T02:38:56.026Z,100747.12
2018-07-23T02:41:24.042Z,100745.92
2018-07-23T02:43:52.036Z,100744.75
2018-07-23T02:46:20.427Z,100744.96
2018-07-23T02:48:48.425Z,100746.72
2018-07-23T02:51:16.465Z,100747.72
2018-07-23T02:53:44.532Z,100749.26
2018-07-23T02:56:12.529Z,100739.70
2018-07-23T02:58:40.602Z,100745.05
2018-07-23T03:01:08.641Z,100742.88
2018-07-23T03:03:36.653Z,100744.84
2018-07-23T03:06:04.656Z,100746.59
2018-07-23T03:08:32.655Z,100747.22
2018-07-23T03:11:00.708Z,100745.13
2018-07-23T03:13:28.764Z,100744.21
2018-07-23T03:15:56.749Z,100739.83
2018-07-23T03:18:24.732Z,100740.04
2018-07-23T03:20:52.720Z,100749.27
2018-07-23T03:23:20.721Z,100750.61
2018-07-23T03:25:48.753Z,100744.92
2018-07-23T03:28:16.783Z,100748.42
2018-07-23T03:30:44.776Z,100747.30
2018-07-23T03:33:12.824Z,100757.45
2018-07-23T03:35:40.864Z,100761.71
2018-07-23T03:38:08.879Z,100758.28
2018-07-23T03:40:36.913Z,100758.13
2018-07-23T03:43:04.925Z,100760.67
2018-07-23T03:45:33.984Z,100762.22
2018-07-23T03:48:01.979Z,100760.25
2018-07-23T03:50:29.998Z,100759.20
2018-07-23T03:52:57.993Z,100761.88
2018-07-23T03:55:26.023Z,100768.22
2018-07-23T03:57:54.019Z,100765.87
2018-07-23T04:00:22.022Z,100761.50
2018-07-23T04:02:49.996Z,100762.77
2018-07-23T04:05:18.096Z,100767.70
2018-07-23T04:07:46.112Z,100767.98
2018-07-23T04:10:14.109Z,100769.19
2018-07-23T04:12:42.137Z,100780.22
2018-07-23T04:15:10.140Z,100769.73
2018-07-23T04:17:38.264Z,100774.32
2018-07-23T04:20:06.290Z,100780.58
2018-07-23T04:22:34.272Z,100788.46
2018-07-23T04:25:02.305Z,100790.09
2018-07-23T04:27:30.317Z,100792.61
2018-07-23T04:29:58.420Z,100794.73
2018-07-23T04:32:26.389Z,100790.26
2018-07-23T04:34:54.368Z,100791.37
2018-07-23T04:37:22.377Z,100793.67
2018-07-23T04:39:50.370Z,100788.55
2018-07-23T04:42:18.395Z,100798.14
2018-07-23T04:44:46.381Z,100797.72
2018-07-23T04:47:14.405Z,100801.09
2018-07-23T04:49:42.419Z,100799.08
2018-07-23T04:52:10.429Z,100797.59
2018-07-23T04:54:38.429Z,100799.12
2018-07-23T04:57:06.441Z,100802.62
2018-07-23T04:59:34.451Z,100803.08
2018-07-23T05:02:02.461Z,100804.44
2018-07-23T05:04:30.531Z,100804.28
2018-07-23T05:06:58.548Z,100812.66
2018-07-23T05:09:26.585Z,100809.78
2018-07-23T05:11:54.574Z,100803.89
2018-07-23T05:14:22.868Z,100799.92
2018-07-23T05:16:50.895Z,100796.61
2018-07-23T05:19:18.909Z,100797.98
2018-07-23T05:21:46.924Z,100798.53
2018-07-23T05:24:14.961Z,100799.70
2018-07-23T05:26:42.965Z,100807.08
2018-07-23T05:29:10.991Z,100810.45
2018-07-23T05:31:39.031Z,100813.31
2018-07-23T05:34:07.077Z,100818.70
2018-07-23T05:36:35.244Z,100821.91
2018-07-23T05:39:03.423Z,100815.51
2018-07-23T05:41:31.452Z,100821.04
2018-07-23T05:43:59.478Z,100825.22
2018-07-23T05:46:27.513Z,100830.56
2018-07-23T05:48:55.568Z,100831.50
2018-07-23T05:51:23.603Z,100836.49
2018-07-23T05:53:51.654Z,100842.91
2018-07-23T05:56:19.691Z,100841.72
2018-07-23T05:58:47.787Z,100835.78
2018-07-23T06:01:15.752Z,100839.49
2018-07-23T06:03:43.841Z,100834.25
2018-07-23T06:06:11.847Z,100845.46
2018-07-23T06:08:39.800Z,100840.63
2018-07-23T06:11:07.823Z,100846.08
2018-07-23T06:13:35.862Z,100842.11
2018-07-23T06:16:03.834Z,100839.27
2018-07-23T06:18:31.852Z,100841.63
2018-07-23T06:20:59.924Z,100844.07
2018-07-23T06:23:27.948Z,100848.75
2018-07-23T06:25:55.978Z,100858.27
2018-07-23T06:28:23.957Z,100856.45
2018-07-23T06:30:51.948Z,100857.48
2018-07-23T06:33:19.975Z,100866.02
2018-07-23T06:35:48.012Z,100867.84
2018-07-23T06:38:16.090Z,100862.25
2018-07-23T06:40:44.108Z,100875.38
2018-07-23T06:43:12.170Z,100879.23
2018-07-23T06:45:40.151Z,100880.66
2018-07-23T06:48:08.171Z,100885.06
2018-07-23T06:50:36.168Z,100889.43
2018-07-23T06:53:04.158Z,100881.98
2018-07-23T06:55:32.153Z,100881.42
2018-07-23T06:58:00.138Z,100885.19
2018-07-23T07:00:28.212Z,100885.58
2018-07-23T07:02:56.168Z,100881.50
2018-07-23T07:05:24.220Z,100869.46
2018-07-23T07:07:52.243Z,100876.25
2018-07-23T07:10:20.265Z,100871.13
2018-07-23T07:12:48.919Z,100871.97
2018-07-23T07:15:16.916Z,100870.34
2018-07-23T07:17:44.945Z,100874.73
2018-07-23T07:20:12.921Z,100885.45
2018-07-23T07:22:40.936Z,100877.50
2018-07-23T07:25:09.023Z,100878.88
2018-07-23T07:27:37.045Z,100890.09
2018-07-23T07:30:06.132Z,100887.20
2018-07-23T07:32:34.145Z,100892.53
2018-07-23T07:35:02.151Z,100895.94
2018-07-23T07:37:30.268Z,100889.52
2018-07-23T07:39:58.345Z,100889.03
2018-07-23T07:42:26.445Z,100887.37
2018-07-23T07:44:54.437Z,100890.56
2018-07-23T07:47:22.449Z,100889.17
2018-07-23T07:49:50.467Z,100886.92
2018-07-23T07:52:18.537Z,100886.23
2018-07-23T07:54:46.780Z,100881.52
2018-07-23T07:57:14.888Z,100878.76
2018-07-23T07:59:42.902Z,100872.94
2018-07-23T08:02:10.904Z,100877.03
2018-07-23T08:04:38.960Z,100880.69
2018-07-23T08:07:07.067Z,100875.41
2018-07-23T08:09:35.138Z,100875.16
2018-07-23T08:12:03.159Z,100869.70
2018-07-23T08:14:31.201Z,100864.08
2018-07-23T08:16:59.227Z,100867.47
2018-07-23T08:19:27.504Z,100870.06
2018-07-23T08:21:55.564Z,100869.98
2018-07-23T08:24:23.650Z,100874.47
2018-07-23T08:26:51.712Z,100873.94
2018-07-23T08:29:19.808Z,100874.28
2018-07-23T08:31:47.877Z,100869.30
2018-07-23T08:34:15.828Z,100878.59
2018-07-23T08:36:43.918Z,100876.20
2018-07-23T08:39:12.266Z,100876.54
2018-07-23T08:41:40.357Z,100866.65
2018-07-23T08:44:09.016Z,100874.18
2018-07-23T08:46:37.117Z,100877.83
2018-07-23T08:49:05.311Z,100877.05
2018-07-23T08:51:33.576Z,100871.61
2018-07-23T08:54:01.604Z,100876.02
2018-07-23T08:56:29.917Z,100869.28
2018-07-23T08:58:57.956Z,100872.42
2018-07-23T09:01:26.501Z,100862.28
2018-07-23T09:03:54.572Z,100862.06
2018-07-23T09:06:22.603Z,100863.60
2018-07-23T09:08:50.711Z,100858.82
2018-07-23T09:11:18.681Z,100852.84
2018-07-23T09:13:46.911Z,100856.59
2018-07-23T09:16:14.868Z,100858.81
2018-07-23T09:18:42.869Z,100856.69
2018-07-23T09:21:10.919Z,100867.87
2018-07-23T09:23:38.958Z,100860.78
2018-07-23T09:26:07.031Z,100861.86
2018-07-23T09:28:35.009Z,100867.54
2018-07-23T09:31:03.090Z,100868.27
2018-07-23T09:33:31.096Z,100858.44
2018-07-23T09:35:59.128Z,100865.67
2018-07-23T09:38:27.160Z,100869.89
2018-07-23T09:40:55.174Z,100864.54
2018-07-23T09:43:23.160Z,100860.48
2018-07-23T09:45:51.254Z,100855.36
2018-07-23T09:48:19.382Z,100847.52
2018-07-23T09:50:48.301Z,100851.73
2018-07-23T09:53:16.308Z,100855.60
2018-07-23T09:55:44.427Z,100851.21
2018-07-23T09:58:12.435Z,100850.24
2018-07-23T10:00:45.773Z,100853.34
2018-07-23T10:03:14.088Z,100839.34
2018-07-23T10:05:42.044Z,100843.70
2018-07-23T10:08:10.097Z,100847.39
2018-07-23T10:10:38.089Z,100847.46
2018-07-23T10:13:06.176Z,100843.14
2018-07-23T10:15:34.190Z,100837.73
2018-07-23T10:18:02.192Z,100840.19
2018-07-23T10:20:30.184Z,100834.31
2018-07-23T10:22:58.239Z,100836.56
2018-07-23T10:25:26.313Z,100841.52
2018-07-23T10:27:54.404Z,100831.94
2018-07-23T10:30:22.505Z,100836.25
2018-07-23T10:32:50.614Z,100843.77
2018-07-23T10:35:18.909Z,100838.52
2018-07-23T10:37:46.957Z,100843.11
2018-07-23T10:40:14.969Z,100838.01
2018-07-23T10:42:43.028Z,100838.61
2018-07-23T10:45:11.032Z,100822.11
2018-07-23T10:47:39.116Z,100833.22
2018-07-23T10:50:07.094Z,100829.19
2018-07-23T10:52:35.145Z,100833.28
2018-07-23T10:55:03.133Z,100835.50
2018-07-23T10:57:31.157Z,100828.60
2018-07-23T10:59:59.167Z,100830.97
2018-07-23T11:02:27.205Z,100821.76
2018-07-23T11:04:55.215Z,100821.22
2018-07-23T11:07:23.399Z,100826.42
2018-07-23T11:09:51.338Z,100814.62
2018-07-23T11:12:19.377Z,100826.63
2018-07-23T11:14:47.480Z,100828.81
2018-07-23T11:17:15.521Z,100823.67
2018-07-23T11:19:43.568Z,100819.55
2018-07-23T11:22:11.605Z,100817.71
2018-07-23T11:24:45.443Z,100811.94
2018-07-23T11:27:07.657Z,100811.63
2018-07-23T11:29:35.707Z,100815.86
2018-07-23T11:32:03.679Z,100819.77
2018-07-23T11:34:31.699Z,100819.13
2018-07-23T11:36:59.693Z,100818.33
2018-07-23T11:39:27.710Z,100815.48
2018-07-23T11:41:55.694Z,100823.87
2018-07-23T11:44:23.716Z,100815.56
2018-07-23T11:46:51.729Z,100813.72
2018-07-23T11:49:19.844Z,100818.05
2018-07-23T11:51:47.844Z,100819.20
2018-07-23T11:54:16.009Z,100824.71
2018-07-23T11:56:44.103Z,100820.37
2018-07-23T11:59:12.089Z,100823.87
2018-07-23T12:01:40.143Z,100824.43
2018-07-23T12:04:10.408Z,100820.90
2018-07-23T12:06:36.340Z,100828.62
2018-07-23T12:09:07.263Z,100816.53
2018-07-23T12:11:35.273Z,100820.06
2018-07-23T12:14:03.280Z,100821.94
2018-07-23T12:16:31.293Z,100808.50
2018-07-23T12:18:59.290Z,100814.64
2018-07-23T12:21:27.301Z,100813.78
2018-07-23T12:23:55.434Z,100814.44
2018-07-23T12:26:23.510Z,100798.91
2018-07-23T12:28:51.830Z,100813.29
2018-07-23T12:31:19.916Z,100812.48
2018-07-23T12:33:48.256Z,100805.77
2018-07-23T12:36:16.288Z,100811.29
2018-07-23T12:38:44.288Z,100809.84
2018-07-23T12:41:12.371Z,100806.34
2018-07-23T12:43:40.424Z,100804.30
2018-07-23T12:46:08.579Z,100810.11
2018-07-23T12:48:36.626Z,100807.91
2018-07-23T12:51:04.939Z,100799.78
2018-07-23T12:53:33.083Z,100803.56
2018-07-23T12:56:01.201Z,100799.23
2018-07-23T12:58:29.444Z,100801.28
2018-07-23T13:00:57.618Z,100796.66
2018-07-23T13:03:25.799Z,100809.95
2018-07-23T13:05:54.049Z,100807.00
2018-07-23T13:08:22.179Z,100805.02
2018-07-23T13:10:50.435Z,100803.86
2018-07-23T13:13:18.543Z,100801.33
2018-07-23T13:15:46.762Z,100797.52
2018-07-23T13:18:15.201Z,100791.84
2018-07-23T13:20:43.475Z,100790.15
2018-07-23T13:23:11.671Z,100787.73
2018-07-23T13:25:39.682Z,100788.89
2018-07-23T13:28:07.713Z,100784.92
2018-07-23T13:30:35.744Z,100788.73
2018-07-23T13:33:03.861Z,100777.85
2018-07-23T13:35:31.966Z,100771.63
2018-07-23T13:38:00.179Z,100783.30
2018-07-23T13:40:28.198Z,100782.44
2018-07-23T13:42:56.839Z,100774.36
2018-07-23T13:45:24.968Z,100777.34
2018-07-23T13:47:53.160Z,100775.45
2018-07-23T13:50:21.346Z,100776.28
2018-07-23T13:52:49.576Z,100776.83
2018-07-23T13:55:17.594Z,100769.66
2018-07-23T13:57:45.706Z,100771.07
2018-07-23T14:00:13.861Z,100772.47
2018-07-23T14:02:41.972Z,100774.05
2018-07-23T14:05:10.049Z,100778.17
2018-07-23T14:07:38.321Z,100773.05
2018-07-23T14:10:06.450Z,100764.30
2018-07-23T14:12:34.562Z,100759.81
2018-07-23T14:15:02.714Z,100748.42
2018-07-23T14:17:31.032Z,100756.83
2018-07-23T14:19:59.245Z,100763.53
2018-07-23T14:22:27.431Z,100765.14
2018-07-23T14:24:56.198Z,100765.28
2018-07-23T14:27:24.208Z,100772.83
2018-07-23T14:29:52.332Z,100767.34
2018-07-23T14:32:20.500Z,100764.55
2018-07-23T14:34:48.546Z,100766.14
2018-07-23T14:37:16.586Z,100765.14
2018-07-23T14:39:44.701Z,100766.09
2018-07-23T14:42:12.705Z,100760.17
2018-07-23T14:44:40.766Z,100758.73
2018-07-23T14:47:08.880Z,100761.52
2018-07-23T14:49:37.048Z,100757.78
2018-07-23T14:52:05.093Z,100753.46
2018-07-23T14:54:33.089Z,100752.33
2018-07-23T14:57:01.117Z,100745.70
2018-07-23T14:59:29.155Z,100746.89
2018-07-23T15:01:57.135Z,100741.23
2018-07-23T15:04:25.161Z,100746.98
2018-07-23T15:06:53.185Z,100751.16
2018-07-23T15:09:21.202Z,100748.80
2018-07-23T15:11:49.312Z,100748.35
2018-07-23T15:14:17.352Z,100742.37
2018-07-23T15:16:45.417Z,100749.92
2018-07-23T15:19:13.436Z,100750.56
2018-07-23T15:21:41.421Z,100752.03
2018-07-23T15:24:09.480Z,100749.12
2018-07-23T15:26:37.680Z,100749.78
2018-07-23T15:29:05.940Z,100746.98
2018-07-23T15:31:33.908Z,100743.59
2018-07-23T15:34:01.969Z,100747.20
2018-07-23T15:36:30.028Z,100745.72
2018-07-23T15:38:58.052Z,100748.02
2018-07-23T15:41:26.124Z,100748.75
2018-07-23T15:43:54.268Z,100746.55
2018-07-23T15:46:22.256Z,100744.59
2018-07-23T15:48:50.231Z,100744.04
2018-07-23T15:51:18.270Z,100742.67
2018-07-23T15:53:46.307Z,100737.86
2018-07-23T15:56:15.409Z,100742.93
2018-07-23T15:58:43.434Z,100742.07
2018-07-23T16:01:11.545Z,100743.45
2018-07-23T16:03:39.546Z,100739.06
2018-07-23T16:06:07.556Z,100734.55
2018-07-23T16:08:35.588Z,100738.34
2018-07-23T16:11:03.783Z,100744.09
2018-07-23T16:13:31.791Z,100742.45
2018-07-23T16:15:59.804Z,100734.76
2018-07-23T16:18:27.793Z,100732.89
2018-07-23T16:20:55.836Z,100730.95
2018-07-23T16:23:23.844Z,100731.03
2018-07-23T16:25:51.840Z,100725.84
2018-07-23T16:28:19.860Z,100731.21
2018-07-23T16:30:47.954Z,100731.95
2018-07-23T16:33:16.060Z,100731.18
2018-07-23T16:35:44.123Z,100728.51
2018-07-23T16:38:12.165Z,100723.91
2018-07-23T16:40:40.138Z,100722.12
2018-07-23T16:43:08.158Z,100727.17
2018-07-23T16:45:36.144Z,100726.66
2018-07-23T16:48:04.164Z,100718.91
2018-07-23T16:50:32.148Z,100723.72
2018-07-23T16:53:00.168Z,100732.19
2018-07-23T16:55:28.292Z,100727.58
2018-07-23T16:57:56.616Z,100731.55
2018-07-23T17:00:24.765Z,100726.62
2018-07-23T17:02:52.853Z,100728.22
2018-07-23T17:05:20.922Z,100729.57
2018-07-23T17:07:49.033Z,100727.23
2018-07-23T17:10:17.073Z,100730.22
2018-07-23T17:12:45.101Z,100726.62
2018-07-23T17:15:13.156Z,100728.17
2018-07-23T17:17:41.176Z,100720.30
2018-07-23T17:20:11.204Z,100719.89
2018-07-23T17:22:39.288Z,100723.42
2018-07-23T17:25:07.360Z,100726.26
2018-07-23T17:27:35.412Z,100727.63
2018-07-23T17:30:03.486Z,100723.34
2018-07-23T17:32:31.508Z,100729.47
2018-07-23T17:34:59.521Z,100734.46
2018-07-23T17:37:27.569Z,100729.30
2018-07-23T17:39:55.593Z,100738.11
2018-07-23T17:42:23.604Z,100727.13
2018-07-23T17:44:52.746Z,100727.83
2018-07-23T17:47:20.829Z,100721.50
2018-07-23T17:49:49.080Z,100729.03
2018-07-23T17:52:17.321Z,100720.67
2018-07-23T17:54:45.486Z,100725.72
2018-07-23T17:57:13.717Z,100721.92
2018-07-23T17:59:41.799Z,100723.22
2018-07-23T18:02:10.176Z,100727.12
2018-07-23T18:04:38.311Z,100724.06
2018-07-23T18:07:06.301Z,100727.59
2018-07-23T18:09:34.305Z,100727.55
2018-07-23T18:12:02.449Z,100727.02
2018-07-23T18:14:30.488Z,100726.18
2018-07-23T18:16:58.491Z,100731.18
2018-07-23T18:19:26.539Z,100727.41
2018-07-23T18:21:54.526Z,100729.73
2018-07-23T18:24:22.607Z,100726.29
2018-07-23T18:26:50.736Z,100733.10
2018-07-23T18:29:18.857Z,100726.66
2018-07-23T18:31:47.068Z,100732.60
2018-07-23T18:34:15.234Z,100732.31
2018-07-23T18:36:43.428Z,100730.09
2018-07-23T18:39:12.761Z,100729.30
2018-07-23T18:41:41.239Z,100735.95
2018-07-23T18:44:09.668Z,100730.38
2018-07-23T18:46:37.752Z,100731.98
2018-07-23T18:49:18.216Z,100740.36
2018-07-23T18:51:49.812Z,100733.84
2018-07-23T18:54:19.220Z,100731.37
2018-07-23T18:56:50.124Z,100736.19
2018-07-23T18:59:18.328Z,100740.12
2018-07-23T19:01:47.419Z,100732.40
2018-07-23T19:04:15.511Z,100736.44
2018-07-23T19:06:43.748Z,100735.63
2018-07-23T19:09:13.484Z,100740.09
2018-07-23T19:11:42.719Z,100746.93
2018-07-23T19:14:11.000Z,100748.41
2018-07-23T19:16:39.908Z,100749.89
2018-07-23T19:19:08.128Z,100762.15
2018-07-23T19:21:36.233Z,100760.14
2018-07-23T19:24:04.366Z,100763.11
2018-07-23T19:26:32.583Z,100768.25
2018-07-23T19:29:00.613Z,100771.59
2018-07-23T19:31:29.612Z,100773.81
2018-07-23T19:33:58.622Z,100767.22
2018-07-23T19:36:27.327Z,100766.63
2018-07-23T19:38:55.790Z,100764.80
2018-07-23T19:41:24.000Z,100764.66
2018-07-23T19:43:52.158Z,100770.81
2018-07-23T19:46:20.397Z,100767.58
2018-07-23T19:48:48.787Z,100765.27
2018-07-23T19:51:17.046Z,100772.37
2018-07-23T19:53:47.080Z,100769.53
2018-07-23T19:56:15.288Z,100768.31
2018-07-23T19:58:43.589Z,100773.53
2018-07-23T20:01:12.004Z,100772.64
2018-07-23T20:03:40.060Z,100769.47
2018-07-23T20:06:08.378Z,100773.72
2018-07-23T20:08:36.436Z,100767.57
2018-07-23T20:11:04.472Z,100771.55
2018-07-23T20:13:32.633Z,100773.00
2018-07-23T20:16:00.872Z,100770.83
2018-07-23T20:18:28.948Z,100778.34
2018-07-23T20:20:57.161Z,100775.42
2018-07-23T20:23:25.344Z,100770.34
2018-07-23T20:25:53.416Z,100771.20
2018-07-23T20:28:21.519Z,100769.42
2018-07-23T20:30:49.720Z,100769.69
2018-07-23T20:33:17.780Z,100777.48
2018-07-23T20:35:45.956Z,100780.36
2018-07-23T20:38:14.138Z,100787.30
2018-07-23T20:40:42.309Z,100785.73
2018-07-23T20:43:10.452Z,100789.02
2018-07-23T20:45:38.576Z,100783.80
2018-07-23T20:48:06.665Z,100784.23
2018-07-23T20:50:34.672Z,100786.13
2018-07-23T20:53:02.756Z,100782.33
2018-07-23T20:55:30.993Z,100782.47
2018-07-23T20:57:59.240Z,100783.23
2018-07-23T21:00:27.393Z,100780.75
2018-07-23T21:02:55.411Z,100781.25
2018-07-23T21:05:23.600Z,100782.41
2018-07-23T21:07:51.744Z,100791.36
2018-07-23T21:10:19.816Z,100791.51
2018-07-23T21:12:47.889Z,100791.14
2018-07-23T21:15:15.999Z,100793.52
2018-07-23T21:17:44.101Z,100802.02
2018-07-23T21:20:12.121Z,100798.36
2018-07-23T21:22:40.190Z,100799.70
2018-07-23T21:25:08.268Z,100802.92
2018-07-23T21:27:37.417Z,100801.84
2018-07-23T21:30:06.439Z,100804.89
2018-07-23T21:32:34.600Z,100802.72
2018-07-23T21:35:02.802Z,100807.45
2018-07-23T21:37:30.968Z,100806.93
2018-07-23T21:40:00.132Z,100810.88
2018-07-23T21:42:28.188Z,100815.50
2018-07-23T21:44:56.310Z,100811.92
2018-07-23T21:47:24.393Z,100814.86
2018-07-23T21:49:53.245Z,100811.69
2018-07-23T21:52:21.322Z,100815.45
2018-07-23T21:54:49.356Z,100812.02
2018-07-23T21:57:24.313Z,100813.78
2018-07-23T21:59:52.304Z,100815.20
2018-07-23T22:02:20.366Z,100818.54
2018-07-23T22:04:48.404Z,100817.86
2018-07-23T22:07:16.439Z,100813.34
2018-07-23T22:09:45.555Z,100818.01
2018-07-23T22:12:13.574Z,100813.26
2018-07-23T22:14:41.564Z,100811.02
2018-07-23T22:17:09.783Z,100814.86
2018-07-23T22:19:37.943Z,100814.48
2018-07-23T22:22:05.960Z,100821.30
2018-07-23T22:24:33.941Z,100825.58
2018-07-23T22:27:01.989Z,100819.86
2018-07-23T22:29:30.078Z,100817.04
2018-07-23T22:31:58.084Z,100823.31
2018-07-23T22:34:26.092Z,100822.58
2018-07-23T22:36:54.176Z,100821.05
2018-07-23T22:39:22.192Z,100824.59
2018-07-23T22:41:50.209Z,100823.06
2018-07-23T22:44:18.321Z,100823.27
2018-07-23T22:46:46.323Z,100825.30
2018-07-23T22:49:14.402Z,100818.09
2018-07-23T22:51:42.413Z,100821.45
2018-07-23T22:54:10.480Z,100825.05
2018-07-23T22:56:38.907Z,100824.72
2018-07-23T22:59:06.909Z,100827.31
2018-07-23T23:01:34.903Z,100821.23
2018-07-23T23:04:02.925Z,100820.77
2018-07-23T23:06:30.921Z,100819.73
2018-07-23T23:08:58.936Z,100820.57
2018-07-23T23:11:26.940Z,100818.39
2018-07-23T23:13:54.955Z,100815.73
2018-07-23T23:16:23.142Z,100820.93
2018-07-23T23:18:51.145Z,100817.08
2018-07-23T23:21:19.169Z,100817.56
2018-07-23T23:23:47.158Z,100826.87
2018-07-23T23:26:15.159Z,100819.97
2018-07-23T23:28:43.156Z,100814.28
2018-07-23T23:31:11.136Z,100818.32
2018-07-23T23:33:39.160Z,100814.61
2018-07-23T23:36:07.145Z,100811.75
2018-07-23T23:38:35.189Z,100806.55
2018-07-23T23:41:03.186Z,100808.41
2018-07-23T23:43:31.172Z,100812.79
2018-07-23T23:45:59.152Z,100803.04
2018-07-23T23:48:27.141Z,100811.13
2018-07-23T23:50:55.233Z,100809.95
2018-07-23T23:53:23.219Z,100804.06
2018-07-23T23:55:51.213Z,100803.56
2018-07-23T23:58:19.205Z,100797.68
